createdAt,value
2018-06-30T00:00:04.694Z,13.8
2018-06-30T00:00:16.444Z,13.7
2018-06-30T00:00:28.195Z,13.3
2018-06-30T00:00:39.939Z,13.2
2018-06-30T00:00:51.691Z,13.5
2018-06-30T00:01:03.457Z,13.7
2018-06-30T00:01:15.248Z,13.6
2018-06-30T00:01:26.013Z,14.1
2018-06-30T00:01:37.768Z,14.6
2018-06-30T00:01:48.516Z,14.3
2018-06-30T00:02:00.278Z,14.5
2018-06-30T00:02:12.035Z,14.3
2018-06-30T00:02:23.786Z,14.4
2018-06-30T00:02:35.531Z,14.2
2018-06-30T00:02:47.319Z,14.3
2018-06-30T00:02:59.085Z,14.7
2018-06-30T00:03:10.821Z,14.7
2018-06-30T00:03:22.590Z,14.5
2018-06-30T00:03:34.347Z,13.6
2018-06-30T00:03:46.097Z,13.1
2018-06-30T00:03:56.853Z,13.4
2018-06-30T00:04:08.587Z,13.7
2018-06-30T00:04:20.335Z,14
2018-06-30T00:04:31.117Z,14
2018-06-30T00:04:42.898Z,13.9
2018-06-30T00:04:54.655Z,13.5
2018-06-30T00:05:06.435Z,13.6
2018-06-30T00:05:17.180Z,13.8
2018-06-30T00:05:28.940Z,14.2
2018-06-30T00:05:40.684Z,14.5
2018-06-30T00:05:52.425Z,14.2
2018-06-30T00:06:04.167Z,13.8
2018-06-30T00:06:15.949Z,12.6
2018-06-30T00:06:27.733Z,12.8
2018-06-30T00:06:39.479Z,13
2018-06-30T00:06:51.222Z,12.9
2018-06-30T00:07:02.981Z,12.7
2018-06-30T00:07:13.722Z,12.6
2018-06-30T00:07:25.473Z,13.3
2018-06-30T00:07:37.238Z,13.1
2018-06-30T00:07:48.990Z,13.4
2018-06-30T00:08:00.757Z,13.7
2018-06-30T00:08:12.517Z,14.1
2018-06-30T00:08:24.284Z,14.2
2018-06-30T00:08:36.038Z,14.3
2018-06-30T00:08:47.792Z,14.6
2018-06-30T00:08:59.569Z,14.1
2018-06-30T00:09:10.305Z,14.3
2018-06-30T00:09:22.067Z,14.1
2018-06-30T00:09:32.812Z,14.7
2018-06-30T00:09:44.570Z,14.5
2018-06-30T00:09:56.324Z,14
2018-06-30T00:10:08.071Z,13.6
2018-06-30T00:10:19.843Z,13.4
2018-06-30T00:10:31.667Z,13.6
2018-06-30T00:10:42.339Z,13.5
2018-06-30T00:10:54.086Z,13.4
2018-06-30T00:11:04.842Z,13.8
2018-06-30T00:11:16.600Z,14.3
2018-06-30T00:11:27.375Z,14.2
2018-06-30T00:11:39.132Z,14.4
2018-06-30T00:11:49.884Z,14.5
2018-06-30T00:12:00.634Z,14.8
2018-06-30T00:12:12.398Z,15
2018-06-30T00:12:24.135Z,15
2018-06-30T00:12:35.894Z,14.9
2018-06-30T00:12:47.667Z,14.4
2018-06-30T00:12:59.443Z,14.3
2018-06-30T00:13:11.196Z,14.1
2018-06-30T00:13:22.966Z,14.2
2018-06-30T00:13:33.713Z,14.3
2018-06-30T00:13:45.464Z,14.5
2018-06-30T00:13:57.250Z,13.8
2018-06-30T00:14:06.991Z,14.1
2018-06-30T00:14:18.735Z,13.7
2018-06-30T00:14:29.477Z,13.9
2018-06-30T00:14:41.265Z,14
2018-06-30T00:14:53.055Z,14
2018-06-30T00:15:03.839Z,13.5
2018-06-30T00:15:15.588Z,13.3
2018-06-30T00:15:27.336Z,13.9
2018-06-30T00:15:39.097Z,14
2018-06-30T00:15:50.843Z,14.2
2018-06-30T00:16:02.595Z,14
2018-06-30T00:16:14.347Z,14.3
2018-06-30T00:16:25.107Z,14
2018-06-30T00:16:36.866Z,14.4
2018-06-30T00:16:48.617Z,14.4
2018-06-30T00:17:00.358Z,14.3
2018-06-30T00:17:12.111Z,13.9
2018-06-30T00:17:23.869Z,13.9
2018-06-30T00:17:34.633Z,14.4
2018-06-30T00:17:46.373Z,14.5
2018-06-30T00:17:58.135Z,14.4
2018-06-30T00:18:09.917Z,14.1
2018-06-30T00:18:21.710Z,14.2
2018-06-30T00:18:33.468Z,14.3
2018-06-30T00:18:45.240Z,14.3
2018-06-30T00:18:56.998Z,14.4
2018-06-30T00:19:08.767Z,14.8
2018-06-30T00:19:20.519Z,15
2018-06-30T00:19:32.264Z,14.8
2018-06-30T00:19:44.023Z,14.5
2018-06-30T00:19:55.782Z,14.7
2018-06-30T00:20:07.549Z,15
2018-06-30T00:20:19.307Z,14.8
2018-06-30T00:20:31.074Z,14.9
2018-06-30T00:20:42.822Z,14.4
2018-06-30T00:20:53.574Z,14.4
2018-06-30T00:21:04.320Z,13.5
2018-06-30T00:21:16.071Z,14
2018-06-30T00:21:27.837Z,14
2018-06-30T00:21:39.599Z,14.2
2018-06-30T00:21:51.362Z,13.8
2018-06-30T00:22:03.114Z,13.9
2018-06-30T00:22:14.855Z,14.4
2018-06-30T00:22:26.627Z,14.7
2018-06-30T00:22:38.381Z,14.7
2018-06-30T00:22:50.145Z,15.2
2018-06-30T00:23:01.905Z,15.1
2018-06-30T00:23:13.662Z,15.6
2018-06-30T00:23:25.418Z,15.6
2018-06-30T00:23:37.179Z,15.3
2018-06-30T00:23:48.948Z,14.5
2018-06-30T00:24:00.723Z,14.1
2018-06-30T00:24:12.479Z,14.4
2018-06-30T00:24:23.223Z,14.7
2018-06-30T00:24:35.002Z,14.8
2018-06-30T00:24:46.771Z,14.9
2018-06-30T00:24:58.538Z,14.6
2018-06-30T00:25:09.277Z,14.3
2018-06-30T00:25:21.053Z,14.4
2018-06-30T00:25:32.844Z,15.1
2018-06-30T00:25:44.607Z,15.3
2018-06-30T00:25:56.343Z,15.3
2018-06-30T00:26:08.129Z,15.3
2018-06-30T00:26:19.869Z,15.2
2018-06-30T00:26:31.608Z,15.6
2018-06-30T00:26:43.368Z,15.1
2018-06-30T00:26:55.113Z,14.7
2018-06-30T00:27:06.852Z,14.4
2018-06-30T00:27:18.603Z,14.5
2018-06-30T00:27:30.386Z,14.9
2018-06-30T00:27:42.133Z,14.8
2018-06-30T00:27:53.891Z,14.6
2018-06-30T00:28:05.630Z,14.7
2018-06-30T00:28:17.383Z,14.4
2018-06-30T00:28:29.153Z,14.8
2018-06-30T00:28:40.941Z,15.2
2018-06-30T00:28:52.709Z,15.4
2018-06-30T00:29:04.476Z,15.4
2018-06-30T00:29:16.232Z,15.1
2018-06-30T00:29:27.976Z,15.1
2018-06-30T00:29:38.713Z,14.9
2018-06-30T00:29:49.472Z,15.1
2018-06-30T00:30:00.215Z,15
2018-06-30T00:30:10.961Z,15
2018-06-30T00:30:22.718Z,14.3
2018-06-30T00:30:33.488Z,14
2018-06-30T00:30:44.223Z,14.2
2018-06-30T00:30:55.979Z,14.7
2018-06-30T00:31:06.718Z,14.6
2018-06-30T00:31:18.473Z,14.8
2018-06-30T00:31:30.223Z,14.8
2018-06-30T00:31:40.959Z,15
2018-06-30T00:31:52.725Z,14.9
2018-06-30T00:32:04.485Z,15.1
2018-06-30T00:32:16.243Z,15.2
2018-06-30T00:32:27.995Z,15.1
2018-06-30T00:32:39.739Z,15.3
2018-06-30T00:32:51.503Z,15.9
2018-06-30T00:33:02.261Z,15.4
2018-06-30T00:33:12.015Z,15.3
2018-06-30T00:33:23.762Z,15
2018-06-30T00:33:35.512Z,15
2018-06-30T00:33:47.291Z,15
2018-06-30T00:33:59.036Z,15.1
2018-06-30T00:34:09.798Z,15.5
2018-06-30T00:34:21.544Z,15.7
2018-06-30T00:34:32.317Z,15.2
2018-06-30T00:34:42.061Z,15.1
2018-06-30T00:34:53.809Z,15
2018-06-30T00:35:05.552Z,15
2018-06-30T00:35:17.302Z,15.1
2018-06-30T00:35:28.070Z,15.5
2018-06-30T00:35:40.832Z,15.4
2018-06-30T00:35:52.585Z,15.7
2018-06-30T00:36:04.339Z,14.9
2018-06-30T00:36:16.075Z,15.4
2018-06-30T00:36:26.835Z,14.9
2018-06-30T00:36:37.593Z,15.3
2018-06-30T00:36:49.371Z,15.7
2018-06-30T00:37:01.126Z,16.200001
2018-06-30T00:37:12.890Z,15.8
2018-06-30T00:37:24.667Z,15.7
2018-06-30T00:37:36.427Z,15.7
2018-06-30T00:37:48.219Z,15.7
2018-06-30T00:37:59.910Z,15.5
2018-06-30T00:38:11.710Z,15.6
2018-06-30T00:38:23.524Z,15.5
2018-06-30T00:38:35.205Z,16
2018-06-30T00:38:45.948Z,15.8
2018-06-30T00:38:57.704Z,16
2018-06-30T00:39:09.468Z,16.299999
2018-06-30T00:39:21.231Z,16.200001
2018-06-30T00:39:31.998Z,16.1
2018-06-30T00:39:43.743Z,16.1
2018-06-30T00:39:55.495Z,16.200001
2018-06-30T00:40:07.251Z,15.9
2018-06-30T00:40:19.049Z,15.7
2018-06-30T00:40:29.798Z,15.9
2018-06-30T00:40:40.566Z,16
2018-06-30T00:40:51.311Z,16.700001
2018-06-30T00:41:01.056Z,16.5
2018-06-30T00:41:12.807Z,16.5
2018-06-30T00:41:24.561Z,16.200001
2018-06-30T00:41:36.306Z,16.1
2018-06-30T00:41:47.055Z,16.200001
2018-06-30T00:41:58.838Z,16.5
2018-06-30T00:42:10.588Z,16.700001
2018-06-30T00:42:22.354Z,16.6
2018-06-30T00:42:34.101Z,16.299999
2018-06-30T00:42:45.886Z,16.5
2018-06-30T00:42:57.632Z,16.299999
2018-06-30T00:43:08.372Z,15.9
2018-06-30T00:43:19.116Z,15.1
2018-06-30T00:43:30.865Z,14.7
2018-06-30T00:43:42.617Z,14.6
2018-06-30T00:43:54.415Z,14.8
2018-06-30T00:44:06.188Z,15.2
2018-06-30T00:44:16.962Z,15.3
2018-06-30T00:44:28.698Z,15.3
2018-06-30T00:44:39.478Z,15.5
2018-06-30T00:44:51.240Z,15.8
2018-06-30T00:45:02.999Z,15.7
2018-06-30T00:45:14.757Z,16.1
2018-06-30T00:45:26.522Z,15.7
2018-06-30T00:45:38.271Z,15.6
2018-06-30T00:45:50.024Z,15.4
2018-06-30T00:46:01.785Z,15.4
2018-06-30T00:46:13.539Z,15.4
2018-06-30T00:46:25.286Z,15.7
2018-06-30T00:46:37.029Z,16.700001
2018-06-30T00:46:47.782Z,16.9
2018-06-30T00:46:59.544Z,16.700001
2018-06-30T00:47:11.295Z,16.4
2018-06-30T00:47:22.102Z,16.799999
2018-06-30T00:47:33.879Z,16.299999
2018-06-30T00:47:45.640Z,16.1
2018-06-30T00:47:55.384Z,16.1
2018-06-30T00:48:07.132Z,16.5
2018-06-30T00:48:18.890Z,16.299999
2018-06-30T00:48:30.655Z,16.4
2018-06-30T00:48:42.398Z,16.1
2018-06-30T00:48:53.134Z,16.4
2018-06-30T00:49:04.937Z,17.1
2018-06-30T00:49:17.661Z,16.700001
2018-06-30T00:49:29.418Z,16.4
2018-06-30T00:49:41.179Z,15.9
2018-06-30T00:49:52.940Z,16
2018-06-30T00:50:04.688Z,15.7
2018-06-30T00:50:14.430Z,15.8
2018-06-30T00:50:26.179Z,15.7
2018-06-30T00:50:37.952Z,15.4
2018-06-30T00:50:47.735Z,15.2
2018-06-30T00:50:59.479Z,15.5
2018-06-30T00:51:11.231Z,16.200001
2018-06-30T00:51:22.982Z,16.6
2018-06-30T00:51:34.752Z,16.799999
2018-06-30T00:51:46.498Z,16.5
2018-06-30T00:51:58.284Z,16.1
2018-06-30T00:52:10.048Z,16.6
2018-06-30T00:52:21.824Z,16.799999
2018-06-30T00:52:33.574Z,16.9
2018-06-30T00:52:45.319Z,17.200001
2018-06-30T00:52:55.096Z,16.9
2018-06-30T00:53:06.879Z,16.5
2018-06-30T00:53:18.622Z,16.299999
2018-06-30T00:53:30.398Z,16.6
2018-06-30T00:53:42.144Z,16.6
2018-06-30T00:53:53.894Z,16.4
2018-06-30T00:54:04.658Z,16.4
2018-06-30T00:54:16.400Z,16
2018-06-30T00:54:28.152Z,16.5
2018-06-30T00:54:39.904Z,16.299999
2018-06-30T00:54:51.665Z,16.299999
2018-06-30T00:55:03.450Z,15.9
2018-06-30T00:55:15.178Z,16.1
2018-06-30T00:55:25.938Z,16.200001
2018-06-30T00:55:36.712Z,16.4
2018-06-30T00:55:48.483Z,16.4
2018-06-30T00:56:00.245Z,16.1
2018-06-30T00:56:12.007Z,16.200001
2018-06-30T00:56:22.740Z,16.299999
2018-06-30T00:56:34.505Z,16.4
2018-06-30T00:56:46.262Z,16.700001
2018-06-30T00:56:58.018Z,17
2018-06-30T00:57:09.771Z,17.1
2018-06-30T00:57:21.517Z,17.1
2018-06-30T00:57:33.288Z,16.799999
2018-06-30T00:57:45.016Z,16.799999
2018-06-30T00:57:56.765Z,16.700001
2018-06-30T00:58:08.514Z,16.9
2018-06-30T00:58:20.313Z,16.9
2018-06-30T00:58:31.054Z,16.4
2018-06-30T00:58:42.811Z,16.4
2018-06-30T00:58:54.571Z,17
2018-06-30T00:59:05.308Z,17.6
2018-06-30T00:59:17.066Z,17.299999
2018-06-30T00:59:28.834Z,16.9
2018-06-30T00:59:38.591Z,16.4
2018-06-30T00:59:50.374Z,16
2018-06-30T01:00:01.104Z,15.2
2018-06-30T01:00:12.837Z,15
2018-06-30T01:00:24.600Z,15.6
2018-06-30T01:00:35.337Z,15.5
2018-06-30T01:00:47.100Z,15.7
2018-06-30T01:00:57.856Z,15.7
2018-06-30T01:01:09.609Z,16
2018-06-30T01:01:21.356Z,15.7
2018-06-30T01:01:34.115Z,15.5
2018-06-30T01:01:45.859Z,16.5
2018-06-30T01:01:57.651Z,16.799999
2018-06-30T01:02:09.408Z,16.799999
2018-06-30T01:02:21.170Z,16.4
2018-06-30T01:02:31.909Z,16.4
2018-06-30T01:02:43.657Z,16.6
2018-06-30T01:02:54.418Z,16.700001
2018-06-30T01:03:06.186Z,16.299999
2018-06-30T01:03:15.927Z,15.9
2018-06-30T01:03:27.679Z,15.6
2018-06-30T01:03:39.419Z,15.6
2018-06-30T01:03:51.170Z,16.200001
2018-06-30T01:04:01.925Z,16.799999
2018-06-30T01:04:13.687Z,16.6
2018-06-30T01:04:25.453Z,17.200001
2018-06-30T01:04:37.199Z,16.4
2018-06-30T01:04:48.956Z,16.299999
2018-06-30T01:05:00.715Z,15.9
2018-06-30T01:05:12.472Z,15.8
2018-06-30T01:05:23.212Z,15.9
2018-06-30T01:05:35.003Z,15.6
2018-06-30T01:05:46.777Z,15.5
2018-06-30T01:05:58.525Z,15.8
2018-06-30T01:06:10.308Z,16.1
2018-06-30T01:06:22.055Z,16.5
2018-06-30T01:06:33.828Z,16.200001
2018-06-30T01:06:45.592Z,15.6
2018-06-30T01:06:58.306Z,15.4
2018-06-30T01:07:10.051Z,15.6
2018-06-30T01:07:22.797Z,15.8
2018-06-30T01:07:34.552Z,15.9
2018-06-30T01:07:46.320Z,16.4
2018-06-30T01:07:58.082Z,16
2018-06-30T01:08:08.833Z,16.200001
2018-06-30T01:08:20.581Z,16.4
2018-06-30T01:08:32.332Z,15.9
2018-06-30T01:08:42.102Z,15.4
2018-06-30T01:08:53.848Z,15.4
2018-06-30T01:09:05.601Z,15.8
2018-06-30T01:09:17.356Z,16.4
2018-06-30T01:09:29.111Z,16.299999
2018-06-30T01:09:40.869Z,16.299999
2018-06-30T01:09:51.635Z,16.299999
2018-06-30T01:10:02.353Z,16.5
2018-06-30T01:10:13.104Z,16.700001
2018-06-30T01:10:24.847Z,16.6
2018-06-30T01:10:36.591Z,16.4
2018-06-30T01:10:48.347Z,16.299999
2018-06-30T01:11:00.099Z,16.700001
2018-06-30T01:11:11.867Z,17
2018-06-30T01:11:23.623Z,17.700001
2018-06-30T01:11:35.393Z,17
2018-06-30T01:11:47.171Z,16.299999
2018-06-30T01:11:58.943Z,15.8
2018-06-30T01:12:08.693Z,16.200001
2018-06-30T01:12:20.445Z,16.1
2018-06-30T01:12:31.195Z,16.1
2018-06-30T01:12:41.933Z,15.8
2018-06-30T01:12:53.685Z,15.5
2018-06-30T01:13:05.459Z,15.4
2018-06-30T01:13:16.203Z,15.3
2018-06-30T01:13:27.957Z,15.8
2018-06-30T01:13:38.712Z,16.1
2018-06-30T01:13:50.456Z,16.299999
2018-06-30T01:14:01.192Z,15.9
2018-06-30T01:14:12.942Z,15.5
2018-06-30T01:14:24.734Z,15.2
2018-06-30T01:14:36.475Z,15.5
2018-06-30T01:14:48.243Z,16.200001
2018-06-30T01:14:59.998Z,16.5
2018-06-30T01:15:11.766Z,16.700001
2018-06-30T01:15:22.510Z,17.1
2018-06-30T01:15:34.258Z,17
2018-06-30T01:15:46.006Z,16.6
2018-06-30T01:15:55.744Z,16.299999
2018-06-30T01:16:07.505Z,16.799999
2018-06-30T01:16:17.268Z,16.5
2018-06-30T01:16:28.011Z,16.4
2018-06-30T01:16:39.778Z,16.5
2018-06-30T01:16:51.525Z,16.799999
2018-06-30T01:17:03.282Z,16.700001
2018-06-30T01:17:15.053Z,16.700001
2018-06-30T01:17:25.787Z,16.9
2018-06-30T01:17:36.537Z,16.9
2018-06-30T01:17:48.285Z,16.700001
2018-06-30T01:18:00.070Z,16.1
2018-06-30T01:18:11.836Z,16.299999
2018-06-30T01:18:23.597Z,16.5
2018-06-30T01:18:35.342Z,16.9
2018-06-30T01:18:47.122Z,16.6
2018-06-30T01:18:58.862Z,16.5
2018-06-30T01:19:10.619Z,16.1
2018-06-30T01:19:22.363Z,15.6
2018-06-30T01:19:34.125Z,15.8
2018-06-30T01:19:45.914Z,15.8
2018-06-30T01:19:56.675Z,16
2018-06-30T01:20:08.443Z,16.200001
2018-06-30T01:20:20.179Z,16
2018-06-30T01:20:31.939Z,15.9
2018-06-30T01:20:44.689Z,16.6
2018-06-30T01:20:56.435Z,16.6
2018-06-30T01:21:07.202Z,16.6
2018-06-30T01:21:18.957Z,16.9
2018-06-30T01:21:29.705Z,16.799999
2018-06-30T01:21:41.459Z,16.4
2018-06-30T01:21:53.211Z,17.1
2018-06-30T01:22:04.986Z,17.200001
2018-06-30T01:22:16.744Z,17.200001
2018-06-30T01:22:28.516Z,16.700001
2018-06-30T01:22:40.261Z,16.799999
2018-06-30T01:22:52.020Z,16.799999
2018-06-30T01:23:02.785Z,16.700001
2018-06-30T01:23:13.554Z,16.799999
2018-06-30T01:23:25.312Z,16.5
2018-06-30T01:23:37.089Z,16.5
2018-06-30T01:23:48.836Z,16.4
2018-06-30T01:24:00.621Z,16.299999
2018-06-30T01:24:12.379Z,16.299999
2018-06-30T01:24:24.133Z,16.200001
2018-06-30T01:24:35.877Z,15.5
2018-06-30T01:24:47.630Z,16.200001
2018-06-30T01:24:59.381Z,16.5
2018-06-30T01:25:11.148Z,16.299999
2018-06-30T01:25:22.891Z,16
2018-06-30T01:25:33.639Z,15.7
2018-06-30T01:25:45.385Z,15.6
2018-06-30T01:25:57.136Z,15.9
2018-06-30T01:26:08.885Z,16.1
2018-06-30T01:26:19.637Z,16.5
2018-06-30T01:26:31.393Z,16.4
2018-06-30T01:26:43.145Z,16.5
2018-06-30T01:26:54.905Z,16.200001
2018-06-30T01:27:05.670Z,15.8
2018-06-30T01:27:17.422Z,15.9
2018-06-30T01:27:29.182Z,16.4
2018-06-30T01:27:40.933Z,16.4
2018-06-30T01:27:51.662Z,16.200001
2018-06-30T01:28:03.422Z,16.4
2018-06-30T01:28:15.184Z,16.299999
2018-06-30T01:28:25.948Z,15.9
2018-06-30T01:28:36.684Z,16.1
2018-06-30T01:28:48.427Z,16.299999
2018-06-30T01:29:00.177Z,16.700001
2018-06-30T01:29:11.929Z,16.5
2018-06-30T01:29:23.681Z,16.299999
2018-06-30T01:29:35.419Z,16.1
2018-06-30T01:29:47.170Z,16.299999
2018-06-30T01:29:57.928Z,16.4
2018-06-30T01:30:09.691Z,16.299999
2018-06-30T01:30:21.454Z,16.4
2018-06-30T01:30:33.199Z,16.6
2018-06-30T01:30:44.954Z,16.700001
2018-06-30T01:30:56.695Z,16.700001
2018-06-30T01:31:08.481Z,15.9
2018-06-30T01:31:20.199Z,16.299999
2018-06-30T01:31:31.959Z,17.299999
2018-06-30T01:31:43.703Z,17
2018-06-30T01:31:55.473Z,16.6
2018-06-30T01:32:07.235Z,16.5
2018-06-30T01:32:18.990Z,16.6
2018-06-30T01:32:29.768Z,16.200001
2018-06-30T01:32:41.517Z,15.9
2018-06-30T01:32:53.316Z,15.9
2018-06-30T01:33:05.070Z,16
2018-06-30T01:33:16.824Z,15.7
2018-06-30T01:33:28.573Z,15.6
2018-06-30T01:33:39.348Z,16.1
2018-06-30T01:33:50.097Z,16.799999
2018-06-30T01:34:01.872Z,16.5
2018-06-30T01:34:13.629Z,16
2018-06-30T01:34:24.360Z,15.8
2018-06-30T01:34:36.115Z,16.1
2018-06-30T01:34:48.859Z,16
2018-06-30T01:35:00.623Z,15.8
2018-06-30T01:35:12.373Z,15.7
2018-06-30T01:35:24.149Z,15.8
2018-06-30T01:35:35.894Z,16
2018-06-30T01:35:46.667Z,15.6
2018-06-30T01:35:58.421Z,16
2018-06-30T01:36:10.160Z,15.9
2018-06-30T01:36:20.879Z,16.1
2018-06-30T01:36:32.629Z,15.8
2018-06-30T01:36:44.384Z,16.1
2018-06-30T01:36:56.127Z,16.299999
2018-06-30T01:37:07.882Z,16.200001
2018-06-30T01:37:19.625Z,16.200001
2018-06-30T01:37:31.399Z,16.5
2018-06-30T01:37:43.167Z,16.4
2018-06-30T01:37:53.966Z,16.299999
2018-06-30T01:38:05.723Z,16.299999
2018-06-30T01:38:17.478Z,16.200001
2018-06-30T01:38:29.235Z,16.1
2018-06-30T01:38:40.993Z,16.1
2018-06-30T01:38:52.782Z,16.700001
2018-06-30T01:39:04.544Z,16.9
2018-06-30T01:39:16.323Z,17.1
2018-06-30T01:39:27.078Z,16.799999
2018-06-30T01:39:37.822Z,16.5
2018-06-30T01:39:49.577Z,16.700001
2018-06-30T01:40:01.317Z,16.799999
2018-06-30T01:40:13.079Z,16.1
2018-06-30T01:40:24.872Z,16.700001
2018-06-30T01:40:35.601Z,17.200001
2018-06-30T01:40:47.357Z,17.299999
2018-06-30T01:40:59.103Z,16.200001
2018-06-30T01:41:10.846Z,16
2018-06-30T01:41:22.622Z,16.200001
2018-06-30T01:41:34.384Z,16.4
2018-06-30T01:41:45.132Z,16.6
2018-06-30T01:41:55.868Z,16
2018-06-30T01:42:07.624Z,15.5
2018-06-30T01:42:19.375Z,15.6
2018-06-30T01:42:31.151Z,16.4
2018-06-30T01:42:41.884Z,17.1
2018-06-30T01:42:53.654Z,17
2018-06-30T01:43:05.397Z,16.200001
2018-06-30T01:43:17.162Z,16.1
2018-06-30T01:43:28.914Z,16.6
2018-06-30T01:43:40.682Z,16.799999
2018-06-30T01:43:51.431Z,17.200001
2018-06-30T01:44:02.694Z,17.299999
2018-06-30T01:44:14.465Z,17.1
2018-06-30T01:44:25.217Z,16.700001
2018-06-30T01:44:36.972Z,16.5
2018-06-30T01:44:48.721Z,16.200001
2018-06-30T01:45:00.531Z,15.8
2018-06-30T01:45:12.287Z,16.299999
2018-06-30T01:45:24.047Z,16.200001
2018-06-30T01:45:35.803Z,16.4
2018-06-30T01:45:47.590Z,16.9
2018-06-30T01:45:59.338Z,16.9
2018-06-30T01:46:11.126Z,16.9
2018-06-30T01:46:22.889Z,16.6
2018-06-30T01:46:34.678Z,16.5
2018-06-30T01:46:46.415Z,16.1
2018-06-30T01:46:57.172Z,16
2018-06-30T01:47:07.935Z,15.9
2018-06-30T01:47:18.678Z,16.299999
2018-06-30T01:47:29.450Z,16
2018-06-30T01:47:41.207Z,16.1
2018-06-30T01:47:52.977Z,16.4
2018-06-30T01:48:04.728Z,16.6
2018-06-30T01:48:16.475Z,16.700001
2018-06-30T01:48:27.203Z,16.200001
2018-06-30T01:48:38.963Z,16.5
2018-06-30T01:48:49.715Z,16.200001
2018-06-30T01:49:01.447Z,16.1
2018-06-30T01:49:13.214Z,15.9
2018-06-30T01:49:24.985Z,16.1
2018-06-30T01:49:36.742Z,16.6
2018-06-30T01:49:48.541Z,16.9
2018-06-30T01:49:59.299Z,16.4
2018-06-30T01:50:11.093Z,15.6
2018-06-30T01:50:22.846Z,16
2018-06-30T01:50:34.619Z,15.8
2018-06-30T01:50:46.365Z,16.200001
2018-06-30T01:50:58.112Z,15.7
2018-06-30T01:51:09.865Z,16
2018-06-30T01:51:21.628Z,15.9
2018-06-30T01:51:32.384Z,15.7
2018-06-30T01:51:43.150Z,15.6
2018-06-30T01:51:54.901Z,15.8
2018-06-30T01:52:05.704Z,15.9
2018-06-30T01:52:17.471Z,16
2018-06-30T01:52:29.243Z,16.1
2018-06-30T01:52:40.991Z,16
2018-06-30T01:52:52.742Z,16.200001
2018-06-30T01:53:04.491Z,16.200001
2018-06-30T01:53:16.236Z,16.1
2018-06-30T01:53:28.009Z,16
2018-06-30T01:53:39.783Z,16.299999
2018-06-30T01:53:51.532Z,16.299999
2018-06-30T01:54:03.280Z,16.700001
2018-06-30T01:54:15.028Z,16.700001
2018-06-30T01:54:26.789Z,16.5
2018-06-30T01:54:38.536Z,16.4
2018-06-30T01:54:48.263Z,16
2018-06-30T01:55:00.025Z,16.299999
2018-06-30T01:55:10.753Z,15.9
2018-06-30T01:55:22.505Z,16
2018-06-30T01:55:34.266Z,15.3
2018-06-30T01:55:46.006Z,15.3
2018-06-30T01:55:57.788Z,15
2018-06-30T01:56:09.546Z,15.3
2018-06-30T01:56:21.308Z,15.7
2018-06-30T01:56:33.052Z,15.6
2018-06-30T01:56:44.793Z,15.5
2018-06-30T01:56:57.364Z,15.3
2018-06-30T01:57:09.138Z,15.2
2018-06-30T01:57:20.904Z,15.3
2018-06-30T01:57:32.678Z,15.8
2018-06-30T01:57:44.437Z,16.1
2018-06-30T01:57:55.197Z,16
2018-06-30T01:58:06.970Z,15.9
2018-06-30T01:58:18.722Z,15.8
2018-06-30T01:58:30.484Z,15.9
2018-06-30T01:58:42.205Z,15.8
2018-06-30T01:58:54.955Z,16.4
2018-06-30T01:59:05.700Z,16.5
2018-06-30T01:59:16.448Z,16
2018-06-30T01:59:28.209Z,15.5
2018-06-30T01:59:38.969Z,15.6
2018-06-30T01:59:49.757Z,15.7
2018-06-30T02:00:01.509Z,15.8
2018-06-30T02:00:13.291Z,16.5
2018-06-30T02:00:24.035Z,16.799999
2018-06-30T02:00:35.782Z,16.5
2018-06-30T02:00:47.576Z,15.5
2018-06-30T02:00:59.316Z,15.2
2018-06-30T02:01:11.061Z,14.9
2018-06-30T02:01:22.815Z,15
2018-06-30T02:01:33.570Z,15.1
2018-06-30T02:01:44.305Z,15.1
2018-06-30T02:01:56.080Z,15.4
2018-06-30T02:02:06.813Z,15.6
2018-06-30T02:02:17.567Z,15.3
2018-06-30T02:02:29.310Z,15.2
2018-06-30T02:02:41.081Z,15.4
2018-06-30T02:02:51.822Z,15.6
2018-06-30T02:03:03.581Z,15.6
2018-06-30T02:03:14.328Z,15.8
2018-06-30T02:03:26.111Z,15.5
2018-06-30T02:03:36.863Z,15.4
2018-06-30T02:03:47.604Z,15.5
2018-06-30T02:03:58.341Z,15.5
2018-06-30T02:04:09.087Z,15.6
2018-06-30T02:04:20.860Z,15.2
2018-06-30T02:04:31.664Z,15.6
2018-06-30T02:04:43.425Z,15.6
2018-06-30T02:04:55.166Z,15.3
2018-06-30T02:05:06.924Z,15.4
2018-06-30T02:05:18.674Z,15.3
2018-06-30T02:05:30.428Z,14.5
2018-06-30T02:05:42.173Z,14.5
2018-06-30T02:05:52.912Z,15.2
2018-06-30T02:06:04.674Z,15.4
2018-06-30T02:06:16.420Z,15.2
2018-06-30T02:06:28.166Z,15.3
2018-06-30T02:06:39.914Z,15.6
2018-06-30T02:06:51.663Z,15.9
2018-06-30T02:07:03.428Z,16.1
2018-06-30T02:07:15.159Z,15.9
2018-06-30T02:07:26.908Z,15.3
2018-06-30T02:07:38.679Z,15.1
2018-06-30T02:07:50.433Z,15
2018-06-30T02:08:02.206Z,15.2
2018-06-30T02:08:13.994Z,15.1
2018-06-30T02:08:25.738Z,15
2018-06-30T02:08:36.505Z,15
2018-06-30T02:08:48.263Z,15.3
2018-06-30T02:09:00.050Z,15.2
2018-06-30T02:09:10.798Z,15.1
2018-06-30T02:09:21.580Z,15.4
2018-06-30T02:09:32.327Z,15.6
2018-06-30T02:09:43.120Z,16.200001
2018-06-30T02:09:54.868Z,16.1
2018-06-30T02:10:06.618Z,15.9
2018-06-30T02:10:18.392Z,15.8
2018-06-30T02:10:30.144Z,16.4
2018-06-30T02:10:41.902Z,16.799999
2018-06-30T02:10:52.690Z,16.200001
2018-06-30T02:11:04.439Z,16
2018-06-30T02:11:15.184Z,16.299999
2018-06-30T02:11:26.970Z,16.299999
2018-06-30T02:11:37.713Z,16.1
2018-06-30T02:11:49.475Z,15.8
2018-06-30T02:12:01.237Z,15.7
2018-06-30T02:12:13.013Z,15.7
2018-06-30T02:12:24.745Z,15.8
2018-06-30T02:12:36.504Z,15.9
2018-06-30T02:12:46.248Z,15.6
2018-06-30T02:12:57.990Z,16.200001
2018-06-30T02:13:07.745Z,16.1
2018-06-30T02:13:19.503Z,16.1
2018-06-30T02:13:31.249Z,15.8
2018-06-30T02:13:42.034Z,16
2018-06-30T02:13:52.777Z,15.8
2018-06-30T02:14:04.522Z,16
2018-06-30T02:14:16.274Z,15.6
2018-06-30T02:14:28.038Z,15.3
2018-06-30T02:14:38.781Z,14.7
2018-06-30T02:14:49.531Z,14.7
2018-06-30T02:15:01.302Z,14.6
2018-06-30T02:15:13.062Z,14.9
2018-06-30T02:15:24.803Z,14.7
2018-06-30T02:15:35.559Z,14.8
2018-06-30T02:15:47.309Z,14.7
2018-06-30T02:15:59.078Z,15.2
2018-06-30T02:16:10.843Z,15.2
2018-06-30T02:16:22.589Z,15.4
2018-06-30T02:16:33.337Z,15.4
2018-06-30T02:16:45.086Z,15.5
2018-06-30T02:16:56.838Z,15.5
2018-06-30T02:17:08.593Z,15.5
2018-06-30T02:17:19.384Z,15
2018-06-30T02:17:32.115Z,14.9
2018-06-30T02:17:43.851Z,14.9
2018-06-30T02:17:55.600Z,15.3
2018-06-30T02:18:07.343Z,15.1
2018-06-30T02:18:18.102Z,15
2018-06-30T02:18:29.850Z,15.1
2018-06-30T02:18:41.621Z,15.4
2018-06-30T02:18:53.363Z,16
2018-06-30T02:19:04.112Z,15.6
2018-06-30T02:19:15.851Z,15.1
2018-06-30T02:19:27.620Z,14.6
2018-06-30T02:19:39.370Z,14.7
2018-06-30T02:19:51.132Z,15.3
2018-06-30T02:20:01.871Z,14.9
2018-06-30T02:20:13.623Z,15
2018-06-30T02:20:25.351Z,15.6
2018-06-30T02:20:37.105Z,15.2
2018-06-30T02:20:48.878Z,15.2
2018-06-30T02:21:00.622Z,15.1
2018-06-30T02:21:12.365Z,15
2018-06-30T02:21:24.115Z,14.9
2018-06-30T02:21:34.919Z,14.9
2018-06-30T02:21:46.627Z,15.2
2018-06-30T02:21:58.377Z,15
2018-06-30T02:22:10.132Z,14.4
2018-06-30T02:22:21.906Z,13.6
2018-06-30T02:22:33.640Z,13.4
2018-06-30T02:22:45.387Z,14.3
2018-06-30T02:22:57.148Z,14.4
2018-06-30T02:23:07.893Z,13.6
2018-06-30T02:23:19.648Z,13.4
2018-06-30T02:23:31.410Z,14
2018-06-30T02:23:43.176Z,14
2018-06-30T02:23:54.935Z,14
2018-06-30T02:24:06.698Z,14.3
2018-06-30T02:24:18.441Z,14.7
2018-06-30T02:24:30.216Z,14.3
2018-06-30T02:24:41.973Z,13.9
2018-06-30T02:24:52.707Z,13.7
2018-06-30T02:25:04.480Z,13.5
2018-06-30T02:25:16.235Z,13.7
2018-06-30T02:25:27.970Z,13.6
2018-06-30T02:25:38.719Z,13.5
2018-06-30T02:25:50.516Z,13.4
2018-06-30T02:26:02.397Z,13.4
2018-06-30T02:26:13.146Z,13.5
2018-06-30T02:26:24.906Z,13.6
2018-06-30T02:26:36.656Z,13.9
2018-06-30T02:26:48.408Z,13.8
2018-06-30T02:27:00.205Z,13.3
2018-06-30T02:27:11.988Z,13.4
2018-06-30T02:27:23.729Z,13.8
2018-06-30T02:27:35.491Z,13.7
2018-06-30T02:27:47.235Z,13.7
2018-06-30T02:27:57.007Z,13.8
2018-06-30T02:28:08.765Z,13.5
2018-06-30T02:28:20.533Z,12.7
2018-06-30T02:28:32.290Z,13.1
2018-06-30T02:28:44.030Z,13.8
2018-06-30T02:28:55.789Z,13.9
2018-06-30T02:29:07.543Z,13.5
2018-06-30T02:29:19.299Z,13
2018-06-30T02:29:31.073Z,13
2018-06-30T02:29:41.833Z,13.6
2018-06-30T02:29:52.586Z,13.7
2018-06-30T02:30:04.345Z,14.1
2018-06-30T02:30:16.118Z,13.8